Time;durP1;ratioP1;P1;durP2;ratioP2;P2;SDS_P1;SDS_P2;PMS_P1;PMS_P2;Temp;Humidity;BMP_temperature;BMP_pressure;BME280_temperature;BME280_humidity;BME280_pressure;Samples;Min_cycle;Max_cycle;Signal;HPM_P1;HPM_P2
2021/01/25 00:00:55;;;;;;;1.20;1.20;;;;;;;20.33;37.88;99179.66;5074438;28;20207;-41
2021/01/25 00:03:21;;;;;;;1.30;1.20;;;;;;;20.31;37.73;99181.78;5074410;28;20184;-41
2021/01/25 00:05:47;;;;;;;1.30;1.20;;;;;;;20.30;37.76;99183.66;5074255;28;20218;-39
2021/01/25 00:08:14;;;;;;;1.37;1.37;;;;;;;20.30;37.94;99177.38;5074134;28;20258;-40
2021/01/25 00:10:40;;;;;;;1.07;1.07;;;;;;;20.28;38.17;99185.75;5074202;28;20172;-39
2021/01/25 00:13:06;;;;;;;1.67;1.57;;;;;;;20.29;38.16;99178.44;5074200;28;20184;-41
2021/01/25 00:15:32;;;;;;;1.50;1.40;;;;;;;20.28;38.17;99174.06;5074099;28;20219;-40
2021/01/25 00:17:58;;;;;;;1.20;1.20;;;;;;;20.27;38.09;99173.22;5074241;28;20523;-37
2021/01/25 00:20:24;;;;;;;1.40;1.30;;;;;;;20.27;38.29;99178.66;5074078;28;20313;-35
2021/01/25 00:22:50;;;;;;;1.20;1.20;;;;;;;20.27;38.36;99172.38;5073159;28;20634;-35
2021/01/25 00:25:16;;;;;;;1.10;1.10;;;;;;;20.26;38.34;99179.72;5072709;28;20194;-41
2021/01/25 00:27:42;;;;;;;1.20;1.20;;;;;;;20.27;38.35;99175.94;5072443;28;20187;-39
2021/01/25 00:30:14;;;;;;;1.10;1.10;;;;;;;20.28;38.39;99180.31;5073784;28;20215;-40
2021/01/25 00:32:40;;;;;;;1.33;1.23;;;;;;;20.29;38.39;99178.44;5072831;28;20628;-38
2021/01/25 00:35:07;;;;;;;1.40;1.30;;;;;;;20.28;38.28;99177.59;5073528;28;20183;-46
2021/01/25 00:37:33;;;;;;;1.30;1.20;;;;;;;20.28;38.33;99177.59;5073250;28;20898;-46
2021/01/25 00:39:59;;;;;;;1.17;1.17;;;;;;;20.30;38.49;99177.38;5072498;28;20226;-46
2021/01/25 00:42:25;;;;;;;1.10;1.10;;;;;;;20.31;38.25;99179.06;5072498;28;20183;-46
2021/01/25 00:44:51;;;;;;;1.00;1.00;;;;;;;20.31;38.39;99188.03;5072480;28;20183;-46
2021/01/25 00:47:17;;;;;;;1.20;1.13;;;;;;;20.31;38.24;99179.88;5072355;28;20211;-38
2021/01/25 00:49:43;;;;;;;1.27;1.17;;;;;;;20.31;38.43;99179.88;5072644;28;20193;-37
2021/01/25 00:52:09;;;;;;;1.30;1.20;;;;;;;20.32;38.42;99184.28;5071474;28;20274;-40
2021/01/25 00:54:35;;;;;;;1.40;1.30;;;;;;;20.32;38.09;99180.72;5072319;28;20179;-38
2021/01/25 00:57:01;;;;;;;1.10;1.10;;;;;;;20.29;38.23;99182.00;5072258;28;20207;-40
2021/01/25 00:59:28;;;;;;;1.20;1.20;;;;;;;20.32;38.13;99191.59;5072121;28;20621;-45
2021/01/25 01:01:54;;;;;;;1.20;1.20;;;;;;;20.31;38.04;99190.75;5072186;28;20206;-46
2021/01/25 01:04:20;;;;;;;1.40;1.30;;;;;;;20.31;37.95;99185.31;5072192;28;20191;-46
2021/01/25 01:06:46;;;;;;;1.00;1.00;;;;;;;20.29;37.85;99184.69;5070988;28;20260;-46
2021/01/25 01:09:12;;;;;;;1.23;1.23;;;;;;;20.29;37.90;99192.03;5071077;28;20266;-42
2021/01/25 01:11:38;;;;;;;0.90;0.90;;;;;;;20.28;37.92;99190.34;5071160;28;20183;-42
2021/01/25 01:14:04;;;;;;;1.10;1.10;;;;;;;20.25;37.97;99186.19;5072188;28;20229;-42
2021/01/25 01:16:30;;;;;;;1.30;1.20;;;;;;;20.26;38.07;99187.84;5071972;28;20310;-41
2021/01/25 01:18:56;;;;;;;1.10;1.10;;;;;;;20.24;37.88;99189.97;5072048;28;20211;-34
2021/01/25 01:21:22;;;;;;;1.20;1.20;;;;;;;20.23;38.19;99193.72;5071622;28;20225;-34
2021/01/25 01:23:49;;;;;;;1.20;1.20;;;;;;;20.22;38.28;99182.03;5071860;28;20191;-45
2021/01/25 01:26:15;;;;;;;1.10;1.10;;;;;;;20.22;38.25;99190.19;5071821;28;20214;-40
2021/01/25 01:28:41;;;;;;;1.10;1.10;;;;;;;20.22;38.29;99183.91;5071754;28;20264;-42
2021/01/25 01:31:07;;;;;;;1.00;1.00;;;;;;;20.22;38.25;99192.06;5070555;28;20188;-43
2021/01/25 01:33:33;;;;;;;1.00;1.00;;;;;;;20.23;38.31;99188.28;5071767;28;20821;-44
2021/01/25 01:35:59;;;;;;;1.30;1.20;;;;;;;20.24;38.33;99192.69;5071867;28;20204;-49
2021/01/25 01:38:25;;;;;;;1.20;1.13;;;;;;;20.23;38.24;99188.28;5071972;28;20190;-40
2021/01/25 01:40:51;;;;;;;1.20;1.10;;;;;;;20.24;38.45;99196.22;5069922;28;20237;-44
2021/01/25 01:43:18;;;;;;;1.20;1.20;;;;;;;20.26;38.18;99195.19;5070675;28;20179;-44
2021/01/25 01:45:44;;;;;;;1.20;1.10;;;;;;;20.25;38.46;99197.06;5071658;28;20226;-44
2021/01/25 01:48:10;;;;;;;1.00;1.00;;;;;;;20.26;38.38;99196.00;5071755;28;20184;-44
2021/01/25 01:50:36;;;;;;;1.20;1.20;;;;;;;20.26;38.21;99198.72;5070667;28;20203;-49
2021/01/25 01:53:02;;;;;;;1.10;1.10;;;;;;;20.26;38.07;99193.28;5071609;28;20186;-39
2021/01/25 01:55:28;;;;;;;0.90;0.90;;;;;;;20.26;38.05;99193.28;5053693;28;20183;-40
2021/01/25 01:57:54;;;;;;;0.97;0.97;;;;;;;20.26;38.11;99195.19;5071445;28;20225;-46
2021/01/25 02:00:21;;;;;;;1.20;1.10;;;;;;;20.26;38.20;99192.47;5071468;28;20732;-43
2021/01/25 02:02:47;;;;;;;0.83;0.83;;;;;;;20.26;37.96;99189.75;5071829;28;20187;-44
2021/01/25 02:05:13;;;;;;;1.13;1.13;;;;;;;20.25;38.05;99197.06;5071637;28;20266;-41
2021/01/25 02:07:41;;;;;;;0.97;0.97;;;;;;;20.24;37.98;99195.41;5070470;28;20207;-39
2021/01/25 02:10:07;;;;;;;1.20;1.20;;;;;;;20.24;38.09;99200.84;5053894;28;20565;-45
2021/01/25 02:12:34;;;;;;;1.10;1.10;;;;;;;20.23;38.14;99200.00;5071304;28;20187;-45
2021/01/25 02:15:00;;;;;;;1.00;1.00;;;;;;;20.23;38.08;99199.16;5070363;28;20202;-38
2021/01/25 02:17:26;;;;;;;1.10;1.10;;;;;;;20.22;38.01;99200.22;5070246;28;20268;-37
2021/01/25 02:20:05;;;;;;;0.97;0.97;;;;;;;20.23;38.08;99193.72;5071315;28;20207;-41
2021/01/25 02:23:10;;;;;;;0.97;0.97;;;;;;;20.23;38.12;99199.16;5054723;28;20187;-42
2021/01/25 02:26:14;;;;;;;1.07;1.07;;;;;;;20.22;38.02;99198.34;5071311;28;20195;-38
2021/01/25 02:28:40;;;;;;;1.10;1.10;;;;;;;20.21;38.27;99196.66;5086871;28;20201;-46
2021/01/25 02:31:08;;;;;;;1.07;1.07;;;;;;;20.21;38.18;99199.38;5068735;28;20314;-41
2021/01/25 02:33:42;;;;;;;1.10;1.10;;;;;;;20.21;38.14;99195.84;5071235;28;20221;-40
2021/01/25 02:36:08;;;;;;;1.00;1.00;;;;;;;20.20;38.38;99192.28;5071194;28;20290;-41
2021/01/25 02:38:34;;;;;;;1.00;1.00;;;;;;;20.20;38.31;99200.44;5051111;28;20184;-38
2021/01/25 02:41:00;;;;;;;1.00;1.00;;;;;;;20.21;38.26;99190.41;5053498;28;20295;-37
2021/01/25 02:43:26;;;;;;;1.10;1.10;;;;;;;20.23;38.46;99199.16;5061436;28;20223;-41
2021/01/25 02:45:53;;;;;;;1.10;1.10;;;;;;;20.22;38.33;99198.34;5061638;28;20211;-41
2021/01/25 02:48:19;;;;;;;0.97;0.97;;;;;;;20.23;38.35;99197.28;5070189;28;20567;-42
2021/01/25 02:50:54;;;;;;;1.00;1.00;;;;;;;20.26;38.46;99198.72;5070303;28;20180;-40
2021/01/25 02:53:20;;;;;;;0.90;0.90;;;;;;;20.25;38.37;99199.78;5074969;28;20278;-40
2021/01/25 02:55:47;;;;;;;1.20;1.10;;;;;;;20.25;38.22;99207.94;5074772;28;20206;-37
2021/01/25 02:58:13;;;;;;;1.00;1.00;;;;;;;20.23;38.18;99202.72;5073803;28;20183;-37
2021/01/25 03:00:39;;;;;;;0.90;0.90;;;;;;;20.24;38.19;99206.25;5073630;28;20656;-41
2021/01/25 03:03:05;;;;;;;0.90;0.90;;;;;;;20.23;38.28;99205.44;5074875;28;20180;-33
2021/01/25 03:05:32;;;;;;;1.00;1.00;;;;;;;20.23;38.08;99196.44;5073840;28;20274;-43
2021/01/25 03:07:58;;;;;;;0.93;0.93;;;;;;;20.23;37.96;99210.03;5073650;28;20183;-40
2021/01/25 03:10:24;;;;;;;1.13;1.13;;;;;;;20.22;38.09;99202.94;5056788;28;20553;-40
2021/01/25 03:12:50;;;;;;;1.00;1.00;;;;;;;20.21;38.17;99207.53;5056564;28;20195;-40
2021/01/25 03:15:19;;;;;;;1.00;1.00;;;;;;;20.23;38.03;99210.03;5073298;28;20180;-33
2021/01/25 03:17:45;;;;;;;1.00;1.00;;;;;;;20.20;37.96;99216.72;5073798;28;20184;-41
2021/01/25 03:20:11;;;;;;;1.00;1.00;;;;;;;20.20;38.16;99215.91;5074362;28;20208;-40
2021/01/25 03:22:37;;;;;;;1.00;1.00;;;;;;;20.20;38.07;99226.78;5074397;28;20233;-40
2021/01/25 03:25:04;;;;;;;0.90;0.90;;;;;;;20.20;38.16;99226.78;5074278;28;20203;-40
2021/01/25 03:27:31;;;;;;;1.00;1.00;;;;;;;20.19;38.31;99230.53;5073030;28;20276;-40
2021/01/25 03:29:57;;;;;;;0.90;0.90;;;;;;;20.18;38.20;99226.97;5074184;28;20210;-35
2021/01/25 03:32:23;;;;;;;0.90;0.90;;;;;;;20.18;38.19;99226.16;5073755;28;20226;-35
2021/01/25 03:34:49;;;;;;;0.90;0.90;;;;;;;20.18;38.31;99226.97;5073648;28;20555;-42
2021/01/25 03:37:15;;;;;;;1.20;1.20;;;;;;;20.20;38.44;99232.19;5073747;28;20227;-46
2021/01/25 03:39:41;;;;;;;0.70;0.70;;;;;;;20.19;38.23;99233.25;5073874;28;20192;-40
2021/01/25 03:42:07;;;;;;;0.90;0.90;;;;;;;20.19;38.23;99231.38;5073969;28;20211;-35
2021/01/25 03:44:33;;;;;;;1.00;1.00;;;;;;;20.20;38.19;99235.75;5072954;28;20193;-34
2021/01/25 03:46:59;;;;;;;0.90;0.90;;;;;;;20.21;38.24;99234.69;5072685;28;20786;-49
2021/01/25 03:49:25;;;;;;;0.93;0.93;;;;;;;20.21;38.36;99240.13;5073716;28;20179;-43
2021/01/25 03:51:51;;;;;;;0.80;0.80;;;;;;;20.22;38.11;99249.13;5073702;28;20673;-49
2021/01/25 03:54:17;;;;;;;0.87;0.87;;;;;;;20.20;38.23;99233.03;5073798;28;20183;-49
2021/01/25 03:56:44;;;;;;;0.90;0.90;;;;;;;20.22;38.10;99235.53;5073419;28;20204;-40
2021/01/25 03:59:10;;;;;;;1.00;1.00;;;;;;;20.21;38.15;99233.88;5073689;28;20176;-40
2021/01/25 04:01:36;;;;;;;0.80;0.80;;;;;;;20.20;38.02;99243.91;5073521;28;20211;-40
2021/01/25 04:04:02;;;;;;;0.90;0.90;;;;;;;20.21;38.17;99250.16;5071515;28;20211;-43
2021/01/25 04:06:28;;;;;;;1.00;1.00;;;;;;;20.20;38.20;99248.50;5073436;28;20231;-49
2021/01/25 04:08:54;;;;;;;1.00;1.00;;;;;;;20.19;38.08;99249.56;5073510;28;20183;-49
2021/01/25 04:11:21;;;;;;;0.80;0.80;;;;;;;20.18;38.00;99253.31;5072327;28;20198;-49
2021/01/25 04:13:47;;;;;;;1.00;1.00;;;;;;;20.19;38.08;99257.69;5073332;28;20325;-36
2021/01/25 04:16:13;;;;;;;0.87;0.87;;;;;;;20.19;38.17;99261.25;5073107;28;20215;-33
2021/01/25 04:18:39;;;;;;;0.90;0.90;;;;;;;20.18;38.33;99259.59;5072283;28;20640;-38
2021/01/25 04:21:05;;;;;;;0.90;0.90;;;;;;;20.18;38.34;99256.03;5073034;28;20211;-36
2021/01/25 04:23:31;;;;;;;0.90;0.90;;;;;;;20.18;38.04;99264.19;5071946;28;20187;-37
2021/01/25 04:25:57;;;;;;;0.73;0.73;;;;;;;20.19;38.15;99265.84;5055017;28;20322;-38
2021/01/25 04:28:24;;;;;;;1.00;1.00;;;;;;;20.18;38.11;99270.44;5072889;28;20191;-45
2021/01/25 04:30:50;;;;;;;0.80;0.80;;;;;;;20.18;38.34;99265.03;5073103;28;20191;-46
2021/01/25 04:33:16;;;;;;;0.90;0.90;;;;;;;20.18;38.31;99264.19;5073084;28;20267;-46
2021/01/25 04:35:42;;;;;;;1.03;1.00;;;;;;;20.19;38.46;99271.28;5063371;28;20633;-46
2021/01/25 04:38:08;;;;;;;1.00;1.00;;;;;;;20.20;38.43;99267.53;5066887;28;20267;-45
2021/01/25 04:40:35;;;;;;;0.80;0.80;;;;;;;20.20;38.30;99273.78;5070399;28;20203;-45
2021/01/25 04:43:01;;;;;;;0.70;0.70;;;;;;;20.20;38.38;99270.25;5071807;28;20609;-42
2021/01/25 04:45:27;;;;;;;0.80;0.80;;;;;;;20.20;38.34;99267.53;5072779;28;20198;-46
2021/01/25 04:47:54;;;;;;;0.97;0.97;;;;;;;20.20;38.35;99275.66;5072473;28;20182;-46
2021/01/25 04:50:20;;;;;;;1.03;1.00;;;;;;;20.20;38.14;99275.66;5072388;28;20180;-42
2021/01/25 04:52:46;;;;;;;0.80;0.80;;;;;;;20.19;38.13;99279.44;5071472;28;20179;-48
2021/01/25 04:55:13;;;;;;;0.90;0.90;;;;;;;20.19;38.12;99284.88;5072605;28;20257;-49
2021/01/25 04:57:39;;;;;;;0.80;0.80;;;;;;;20.19;37.97;99293.03;5072526;28;20226;-44
2021/01/25 05:00:07;;;;;;;0.80;0.80;;;;;;;20.20;37.88;99294.69;5054758;28;20557;-41
2021/01/25 05:02:36;;;;;;;0.90;0.90;;;;;;;20.20;37.79;99291.97;5072492;28;20175;-44
2021/01/25 05:05:04;;;;;;;0.83;0.83;;;;;;;20.18;37.89;99291.34;5072390;28;20175;-43
2021/01/25 05:07:30;;;;;;;0.83;0.83;;;;;;;20.16;38.17;99290.72;5071177;28;20203;-46
2021/01/25 05:09:56;;;;;;;0.80;0.80;;;;;;;20.14;38.14;99293.66;5071320;28;20258;-41
2021/01/25 05:12:22;;;;;;;0.80;0.80;;;;;;;20.14;38.13;99299.09;5071175;28;20792;-42
2021/01/25 05:14:48;;;;;;;0.80;0.80;;;;;;;20.15;37.93;99302.66;5070809;28;20233;-36
2021/01/25 05:17:15;;;;;;;0.87;0.87;;;;;;;20.14;38.20;99299.09;5071890;28;20313;-41
2021/01/25 05:19:42;;;;;;;0.90;0.90;;;;;;;20.13;38.39;99305.59;5072131;28;20226;-40
2021/01/25 05:22:19;;;;;;;0.83;0.83;;;;;;;20.15;38.17;99306.19;5072205;28;20183;-41
2021/01/25 05:24:47;;;;;;;0.70;0.70;;;;;;;20.14;38.09;99314.56;5072304;28;20543;-38
2021/01/25 05:27:21;;;;;;;0.80;0.80;;;;;;;20.16;38.34;99317.91;5071192;28;20699;-38
2021/01/25 05:29:47;;;;;;;0.87;0.87;;;;;;;20.14;38.27;99314.56;5072123;28;20215;-40
2021/01/25 05:32:14;;;;;;;0.80;0.80;;;;;;;20.14;38.27;99325.44;5072065;28;20628;-38
2021/01/25 05:34:40;;;;;;;0.80;0.80;;;;;;;20.15;38.26;99332.53;5071825;28;20617;-41
2021/01/25 05:37:12;;;;;;;0.70;0.70;;;;;;;20.17;38.29;99327.72;5071773;28;20199;-44
2021/01/25 05:39:38;;;;;;;0.60;0.60;;;;;;;20.17;38.41;99325.00;5054850;28;20215;-44
2021/01/25 05:42:04;;;;;;;0.70;0.70;;;;;;;20.18;38.40;99326.66;5070726;28;20691;-46
2021/01/25 05:44:31;;;;;;;1.00;0.90;;;;;;;20.19;38.41;99328.34;5071923;28;20180;-40
2021/01/25 05:47:05;;;;;;;0.70;0.70;;;;;;;20.20;38.33;99335.44;5070865;28;20270;-38
2021/01/25 05:49:31;;;;;;;0.90;0.90;;;;;;;20.19;38.31;99329.19;5071942;28;20233;-38
2021/01/25 05:51:57;;;;;;;0.70;0.70;;;;;;;20.19;38.15;99333.78;5071933;28;20179;-42
2021/01/25 05:54:23;;;;;;;0.80;0.80;;;;;;;20.18;38.12;99332.09;5071005;28;20245;-41
2021/01/25 05:56:49;;;;;;;0.80;0.80;;;;;;;20.18;37.93;99334.81;5071881;28;20309;-41
2021/01/25 05:59:15;;;;;;;0.80;0.80;;;;;;;20.17;37.62;99347.56;5071884;28;20175;-42
2021/01/25 06:01:43;;;;;;;0.80;0.80;;;;;;;20.18;38.09;99351.97;5071515;28;20227;-41
2021/01/25 06:04:16;;;;;;;0.80;0.80;;;;;;;20.18;37.97;99353.84;5071605;28;20190;-38
2021/01/25 06:06:54;;;;;;;0.90;0.90;;;;;;;20.18;37.90;99354.69;5070582;28;20207;-38
2021/01/25 06:09:26;;;;;;;0.73;0.73;;;;;;;20.17;37.89;99357.59;5071740;28;20187;-37
2021/01/25 06:11:52;;;;;;;0.90;0.90;;;;;;;20.15;38.07;99359.69;5071578;28;20208;-40
2021/01/25 06:14:22;;;;;;;0.70;0.70;;;;;;;20.15;38.05;99357.81;5070650;28;20523;-41
2021/01/25 06:16:49;;;;;;;1.10;0.85;;;;;;;19.99;38.85;99371.00;5069863;28;20418;-39
2021/01/25 06:19:17;;;;;;;0.90;0.90;;;;;;;20.06;39.02;99371.81;5071102;28;20629;-39
2021/01/25 06:21:43;;;;;;;0.90;0.90;;;;;;;20.10;38.73;99368.47;5070635;28;20272;-42
2021/01/25 06:24:09;;;;;;;0.80;0.80;;;;;;;20.14;38.76;99369.72;5070709;28;20222;-39
2021/01/25 06:26:36;;;;;;;0.90;0.90;;;;;;;20.18;38.77;99376.41;5071535;28;20210;-37
2021/01/25 06:29:06;;;;;;;0.80;0.80;;;;;;;20.22;38.76;99384.97;5075169;28;20211;-38
2021/01/25 06:31:39;;;;;;;0.80;0.80;;;;;;;20.26;38.90;99390.81;5075281;28;20180;-40
2021/01/25 06:34:10;;;;;;;1.00;0.77;;;;;;;20.30;38.71;99398.31;5075294;28;20183;-39
2021/01/25 06:36:37;;;;;;;0.80;0.80;;;;;;;20.33;38.96;99405.22;5075106;28;20199;-47
2021/01/25 06:39:04;;;;;;;0.80;0.80;;;;;;;20.33;38.84;99400.59;5074261;28;20195;-46
2021/01/25 06:41:41;;;;;;;0.90;0.90;;;;;;;20.37;38.67;99410.03;5075052;28;20295;-52
2021/01/25 06:44:10;;;;;;;0.83;0.83;;;;;;;20.37;38.64;99418.19;5075164;28;20187;-51
2021/01/25 06:46:38;;;;;;;0.70;0.70;;;;;;;20.38;38.73;99419.88;5073996;28;20237;-42
2021/01/25 06:49:08;;;;;;;0.70;0.70;;;;;;;20.40;38.81;99422.38;5074079;28;20175;-44
2021/01/25 06:51:44;;;;;;;0.70;0.70;;;;;;;20.40;38.81;99428.66;5074909;28;20182;-37
2021/01/25 06:54:13;;;;;;;0.70;0.70;;;;;;;20.40;38.84;99433.25;5074043;28;20491;-35
2021/01/25 06:56:50;;;;;;;0.80;0.80;;;;;;;20.41;38.78;99443.94;5074218;28;20710;-35
2021/01/25 06:59:18;;;;;;;0.87;0.87;;;;;;;20.40;38.44;99452.25;5074068;28;20176;-47
2021/01/25 07:01:47;;;;;;;1.00;0.90;;;;;;;20.40;38.64;99454.97;5073672;28;20241;-49
2021/01/25 07:04:14;;;;;;;1.00;0.90;;;;;;;20.40;38.73;99461.28;5073822;28;20179;-51
2021/01/25 07:06:43;;;;;;;0.90;0.90;;;;;;;20.42;38.73;99469.22;5074852;28;20270;-45
2021/01/25 07:09:09;;;;;;;1.90;0.80;;;;;;;20.41;39.03;99468.38;5074926;28;20190;-47
2021/01/25 07:11:36;;;;;;;0.90;0.73;;;;;;;20.43;39.31;99471.72;5074704;28;20569;-48
2021/01/25 07:14:02;;;;;;;0.80;0.80;;;;;;;20.44;39.35;99475.28;5073384;28;20184;-47
2021/01/25 07:16:28;;;;;;;0.80;0.80;;;;;;;20.43;39.10;99474.44;5062773;28;20249;-48
2021/01/25 07:18:54;;;;;;;1.60;1.00;;;;;;;20.44;39.17;99480.72;5074211;28;20183;-34
2021/01/25 07:21:21;;;;;;;0.80;0.70;;;;;;;20.44;39.13;99489.72;5073045;28;20653;-39
2021/01/25 07:23:48;;;;;;;2.40;1.00;;;;;;;20.48;39.20;99496.38;5065747;28;20237;-41
2021/01/25 07:26:16;;;;;;;0.73;0.73;;;;;;;20.49;39.10;99508.94;5073951;28;20203;-41
2021/01/25 07:28:42;;;;;;;0.77;0.77;;;;;;;20.51;39.00;99506.84;5074446;28;20186;-45
2021/01/25 07:31:09;;;;;;;0.63;0.63;;;;;;;20.52;38.79;99510.38;5074401;28;20190;-43
2021/01/25 07:33:35;;;;;;;1.90;0.80;;;;;;;20.53;38.83;99515.63;5073283;28;20512;-44
2021/01/25 07:36:01;;;;;;;0.80;0.80;;;;;;;20.52;38.64;99513.94;5073041;28;20611;-49
2021/01/25 07:38:28;;;;;;;2.30;1.50;;;;;;;20.52;38.35;99529.41;5073918;28;20199;-42
2021/01/25 07:40:57;;;;;;;1.80;1.40;;;;;;;20.50;38.51;99520.66;5065128;28;20223;-38
2021/01/25 07:43:27;;;;;;;2.03;1.60;;;;;;;20.49;38.07;99525.25;5073037;28;20186;-38
2021/01/25 07:46:02;;;;;;;1.60;1.50;;;;;;;20.48;38.13;99528.19;5065762;28;20212;-42
2021/01/25 07:48:28;;;;;;;1.50;1.40;;;;;;;20.48;37.87;99536.31;5073722;28;20273;-44
2021/01/25 07:50:55;;;;;;;1.60;1.50;;;;;;;20.46;37.86;99538.41;5072726;28;20641;-43
2021/01/25 07:53:21;;;;;;;2.20;1.60;;;;;;;20.45;37.68;99550.34;5073766;28;20266;-43
2021/01/25 07:55:47;;;;;;;1.70;1.60;;;;;;;20.44;37.63;99549.50;5073077;28;20214;-43
2021/01/25 07:58:13;;;;;;;1.80;1.40;;;;;;;20.43;37.52;99558.72;5067995;28;20192;-44
2021/01/25 08:00:42;;;;;;;1.67;1.50;;;;;;;20.42;37.58;99557.03;5067017;28;20204;-43
2021/01/25 08:03:20;;;;;;;1.43;1.33;;;;;;;20.42;37.85;99557.03;5059377;28;20985;-44
2021/01/25 08:05:49;;;;;;;1.37;1.33;;;;;;;20.41;37.81;99566.22;5072578;28;20222;-40
2021/01/25 08:08:15;;;;;;;1.60;1.50;;;;;;;20.39;37.71;99567.47;5056117;28;20210;-47
2021/01/25 08:10:41;;;;;;;1.50;1.40;;;;;;;20.38;37.88;99566.63;5072132;28;20704;-44
2021/01/25 08:13:19;;;;;;;1.30;1.30;;;;;;;20.38;38.07;99580.22;5066330;28;20222;-45
2021/01/25 08:15:55;;;;;;;2.07;1.50;;;;;;;20.38;38.02;99582.09;5064973;28;20609;-43
2021/01/25 08:18:24;;;;;;;1.03;1.03;;;;;;;20.36;38.18;99585.03;5067570;28;20539;-43
2021/01/25 08:20:53;;;;;;;1.10;1.10;;;;;;;20.35;38.04;99588.78;5072497;28;20215;-42
2021/01/25 08:23:21;;;;;;;1.43;1.33;;;;;;;20.35;38.08;99596.94;5072298;28;20183;-39
2021/01/25 08:26:00;;;;;;;1.40;1.30;;;;;;;20.37;37.99;99603.00;5069106;28;20192;-39
2021/01/25 08:28:37;;;;;;;1.23;1.20;;;;;;;20.36;37.99;99609.47;5068716;28;20270;-39
2021/01/25 08:31:15;;;;;;;1.17;1.07;;;;;;;20.37;37.73;99613.88;5072315;28;20179;-39
2021/01/25 08:33:43;;;;;;;1.30;1.20;;;;;;;20.35;38.21;99615.97;5072084;28;20527;-46
2021/01/25 08:36:10;;;;;;;1.40;1.30;;;;;;;20.35;38.12;99623.28;5072827;28;20549;-44
2021/01/25 08:38:41;;;;;;;1.20;1.20;;;;;;;20.36;38.22;99623.06;5072829;28;20187;-45
2021/01/25 08:41:28;;;;;;;1.20;1.10;;;;;;;20.36;38.20;99620.34;5055061;28;20242;-44
2021/01/25 08:43:59;;;;;;;1.10;1.00;;;;;;;20.35;38.18;99626.84;5072884;28;20628;-43
2021/01/25 08:46:34;;;;;;;1.00;1.00;;;;;;;20.36;38.21;99641.25;5071940;28;20206;-44
2021/01/25 08:49:12;;;;;;;1.30;1.20;;;;;;;20.36;38.11;99649.41;5072522;28;20185;-43
2021/01/25 08:51:38;;;;;;;1.30;1.20;;;;;;;20.33;38.16;99644.34;5072690;28;20229;-49
2021/01/25 08:54:30;;;;;;;1.27;1.20;;;;;;;20.35;38.18;99654.00;5055121;28;20253;-45
2021/01/25 08:56:56;;;;;;;1.30;1.20;;;;;;;20.31;37.95;99658.16;5072541;28;20684;-46
2021/01/25 08:59:33;;;;;;;1.17;1.07;;;;;;;20.33;38.04;99666.09;5072662;28;20188;-46
2021/01/25 09:02:09;;;;;;;1.10;1.10;;;;;;;20.31;38.06;99669.03;5072488;28;20215;-43
2021/01/25 09:04:35;;;;;;;1.50;1.40;;;;;;;20.29;38.07;99675.72;5072192;28;20179;-42
2021/01/25 09:07:01;;;;;;;1.27;1.13;;;;;;;20.27;38.01;99675.91;5072149;28;20202;-41
2021/01/25 09:09:27;;;;;;;1.20;1.10;;;;;;;20.27;38.01;99683.22;5071486;28;20772;-40
2021/01/25 09:11:53;;;;;;;0.93;0.93;;;;;;;20.24;37.80;99679.03;5072620;28;20188;-39
2021/01/25 09:14:21;;;;;;;1.40;1.30;;;;;;;20.24;37.84;99689.91;5072476;28;20184;-39
2021/01/25 09:16:47;;;;;;;1.30;1.20;;;;;;;20.22;37.94;99697.44;5072321;28;20215;-40
2021/01/25 09:19:15;;;;;;;1.10;1.10;;;;;;;20.21;37.97;99691.16;5072180;28;20333;-40
2021/01/25 09:21:41;;;;;;;1.10;1.10;;;;;;;20.20;38.00;99703.06;5071927;28;20211;-43
2021/01/25 09:24:07;;;;;;;1.57;1.17;;;;;;;20.20;38.02;99700.38;5072317;28;20244;-43
2021/01/25 09:26:33;;;;;;;1.20;1.17;;;;;;;20.20;38.09;99699.53;5071476;28;20226;-42
2021/01/25 09:28:59;;;;;;;1.43;1.03;;;;;;;20.19;37.93;99700.56;5063634;28;20194;-43
2021/01/25 09:31:26;;;;;;;1.40;1.30;;;;;;;20.19;38.24;99704.13;5072004;28;20633;-43
2021/01/25 09:33:53;;;;;;;1.07;1.07;;;;;;;20.20;38.28;99705.78;5072134;28;20180;-46
2021/01/25 09:36:20;;;;;;;1.53;1.13;;;;;;;20.20;38.14;99715.81;5072055;28;20199;-43
2021/01/25 09:38:46;;;;;;;1.37;1.10;;;;;;;20.21;38.31;99728.38;5068451;28;20275;-43
2021/01/25 09:41:12;;;;;;;1.00;1.00;;;;;;;20.22;38.49;99721.91;5066622;28;20536;-45
2021/01/25 09:43:38;;;;;;;1.53;1.10;;;;;;;20.22;38.58;99730.03;5072002;28;20184;-42
2021/01/25 09:46:04;;;;;;;1.03;1.00;;;;;;;20.24;38.85;99730.69;5071806;28;20199;-44
2021/01/25 09:48:30;;;;;;;1.23;1.00;;;;;;;20.26;38.70;99744.91;5071972;28;20193;-43
2021/01/25 09:50:56;;;;;;;1.50;1.20;;;;;;;20.27;38.95;99759.31;5071113;28;20685;-43
2021/01/25 09:53:22;;;;;;;3.73;1.20;;;;;;;20.28;38.97;99756.41;5071834;28;20175;-44
2021/01/25 09:55:50;;;;;;;2.53;1.07;;;;;;;20.29;39.06;99765.38;5071787;28;20199;-43
2021/01/25 09:58:16;;;;;;;5.23;1.73;;;;;;;20.28;39.02;99770.00;5071746;28;20179;-44
2021/01/25 10:00:42;;;;;;;5.30;1.40;;;;;;;20.28;39.19;99770.00;5071903;28;20214;-43
2021/01/25 10:03:09;;;;;;;2.80;1.30;;;;;;;20.28;38.85;99774.59;5075606;28;20729;-43
2021/01/25 10:05:35;;;;;;;3.50;1.60;;;;;;;20.27;38.96;99779.19;5070233;28;20188;-44
2021/01/25 10:08:01;;;;;;;1.80;1.30;;;;;;;20.26;38.85;99791.09;5057925;28;20238;-47
2021/01/25 10:10:28;;;;;;;3.67;1.47;;;;;;;20.23;38.41;99789.63;5072407;28;20680;-46
2021/01/25 10:12:55;;;;;;;2.57;1.40;;;;;;;20.22;38.58;99790.66;5074719;28;20202;-45
2021/01/25 10:15:23;;;;;;;1.43;1.33;;;;;;;20.23;38.51;99805.09;5067245;28;20829;-47
2021/01/25 10:17:49;;;;;;;1.30;1.20;;;;;;;20.21;38.29;99813.44;5075555;28;20622;-45
2021/01/25 10:20:15;;;;;;;2.57;1.43;;;;;;;20.20;38.36;99813.66;5075270;28;20222;-46
2021/01/25 10:22:41;;;;;;;1.73;1.27;;;;;;;20.17;38.52;99809.47;5067059;28;20245;-47
2021/01/25 10:25:08;;;;;;;4.97;1.43;;;;;;;20.18;38.48;99819.28;5075362;28;20195;-44
2021/01/25 10:27:35;;;;;;;3.77;1.70;;;;;;;20.16;38.47;99823.25;5075252;28;20222;-46
2021/01/25 10:30:03;;;;;;;4.70;1.57;;;;;;;20.15;38.52;99827.84;5075083;28;20180;-50
2021/01/25 10:32:29;;;;;;;3.77;1.50;;;;;;;20.14;38.52;99822.59;5069417;28;20196;-41
2021/01/25 10:34:55;;;;;;;4.73;2.00;;;;;;;20.15;38.57;99832.44;5074342;28;20187;-44
2021/01/25 10:37:21;;;;;;;5.47;2.10;;;;;;;20.14;38.44;99830.75;5074965;28;20237;-43
2021/01/25 10:39:47;;;;;;;3.90;1.63;;;;;;;20.14;38.47;99841.63;5074135;28;20192;-43
2021/01/25 10:42:13;;;;;;;2.57;1.50;;;;;;;20.14;38.46;99841.63;5066843;28;20665;-45
2021/01/25 10:44:39;;;;;;;5.37;1.70;;;;;;;20.14;38.44;99841.63;5075026;28;20250;-44
2021/01/25 10:47:05;;;;;;;5.23;1.60;;;;;;;20.14;38.63;99841.63;5074827;28;20291;-40
2021/01/25 10:49:33;;;;;;;3.27;1.60;;;;;;;20.14;38.61;99845.19;5075021;28;20184;-44
2021/01/25 10:51:59;;;;;;;3.37;1.93;;;;;;;20.14;38.71;99847.91;5075115;28;20529;-47
2021/01/25 10:54:25;;;;;;;1.40;1.30;;;;;;;20.15;38.48;99856.88;5073896;28;20215;-45
2021/01/25 10:56:52;;;;;;;4.27;1.40;;;;;;;20.15;38.44;99862.31;5070136;28;20207;-40
2021/01/25 10:59:18;;;;;;;5.60;1.50;;;;;;;20.17;38.81;99871.09;5061966;28;20576;-49
2021/01/25 11:01:44;;;;;;;3.90;1.57;;;;;;;20.17;38.71;99871.94;5066090;28;20214;-49
2021/01/25 11:04:10;;;;;;;3.17;1.33;;;;;;;20.18;38.49;99876.34;5074956;28;20195;-44
2021/01/25 11:06:36;;;;;;;2.40;1.50;;;;;;;20.18;38.64;99870.06;5074644;28;20199;-49
2021/01/25 11:09:03;;;;;;;2.97;1.50;;;;;;;20.17;38.63;99880.09;5074417;28;20179;-45
2021/01/25 11:11:29;;;;;;;3.53;1.60;;;;;;;20.18;38.59;99880.94;5057276;28;20188;-44
2021/01/25 11:13:55;;;;;;;2.80;1.47;;;;;;;20.18;38.45;99883.66;5053225;28;20693;-46
2021/01/25 11:16:21;;;;;;;3.53;1.50;;;;;;;20.17;38.28;99893.69;5053543;28;20219;-41
2021/01/25 11:18:48;;;;;;;1.77;1.50;;;;;;;20.18;38.27;99889.09;5054773;28;20176;-41
2021/01/25 11:21:14;;;;;;;5.33;1.57;;;;;;;20.16;38.27;99899.31;5053734;28;20296;-46
2021/01/25 11:23:41;;;;;;;2.80;1.37;;;;;;;20.17;38.45;99907.28;5062002;28;20200;-48
2021/01/25 11:26:07;;;;;;;4.97;1.90;;;;;;;20.15;38.13;99911.22;5065627;28;20212;-45
2021/01/25 11:28:33;;;;;;;6.07;2.23;;;;;;;20.14;38.17;99914.97;5071136;28;20276;-46
2021/01/25 11:30:59;;;;;;;7.30;2.37;;;;;;;20.13;38.20;99913.31;5072906;28;20202;-46
2021/01/25 11:33:25;;;;;;;6.27;2.57;;;;;;;20.13;38.12;99918.75;5073967;28;20245;-47
2021/01/25 11:35:51;;;;;;;5.47;2.20;;;;;;;20.13;38.22;99918.75;5072505;28;20214;-50